Tampa International Airport
KTPA : now visible

Airfield :











YOU CAN JOIN US ON...

 
LOGIN :

Register | Disclaimer

   EN    FR    IT 

 









Legend :    VFR   Marginal VFR   IFR   Intensive IFR   Very Intensive IFR
Visi :
Ceiling :
>= 8 km
>= 3000ft
5 to 8 km
1000 to 3000 ft
1500m to 5 km
500 to 1000 ft
800 to 1500m
200 to 500 ft
< 800m
< 200 ft
Symbols :   Thunderstorms  Fog  Heavy snow  Heavy precipitations  Wind > 20 kt






- Airport Elevation : 26 ft
- IATA code : TPA


KTPA - Tampa International

CURRENT METAR :
  • 220053Z 03004KT 10SM FEW080 BKN150 25/21 A3002 RMK AO2 SLP163 T02500211

EXPIRED METARs :
  • 212353Z 04004KT 10SM FEW035 BKN120 BKN200 25/19 A3001 RMK AO2 RAB2257E12 SLP160 P0002 60002 T02500194 10294 20239 51010
  • 212253Z 08006KT 10SM SCT030 BKN045 BKN130 BKN200 27/20 A3000 RMK AO2 SLP159 VCSH N-E T02720200

TAF KTPA
Valid from the 22 at 00:00 until the 23 at 06:00 UTC


212334Z 2200/2306 06007KT P6SM SCT030 BKN050 OVC100
FM220800 05004KT P6SM FEW020 OVC100
FM221600 08007KT P6SM SCT030 BKN100 OVC200
FM221800 10008KT P6SM VCTS FEW030CB BKN100 BKN200
FM222100 07006KT P6SM SCT040 BKN100 BKN200
KZJX FIR / North America



MET'MAP, your aeronautical weather chart ! - Copyright ORBIFLY December 2007 - Disclaimer

ORBIFLY MET'MAP TEAM :

Programming & Development : Alexandra Zaïnal
Concept & original design : Baudouin d'Aumeries
Assistance for programming : Marc-Olivier Méhu
Technical & hardware support : Manuel Goepfert

Contact : metmap@orbifly.com




SOURCES & CREDITS :

   NOAA       Earth
Advisory